San Luis, AZ (85349)

4:58 AM MST on August 28, 2014 (GMT -0700)
YCWUA International Boundary Pumping Plant | Change Station
CLOSE
Current Station
Personal Weather Station
Location: San Luis, AZ
Elevation: 79 ft
Nearby Weather Stations

Elev 79 ft 32.49 °N, 114.79 °W | Updated 44 seconds ago

Clear
Clear
83.6 °F
Feels Like 83 °F
N
2.0
Wind Variable Wind from NW
Gusts 2.0 mph

Today
High -- | Low -- °F
--% Chance of Precip.
Yesterday
High -- | Low -- °F
Precip. -- in
6:11 AM 7:08 PM
Waxing Crescent, 8% visible
Pressure 29.86 in
Visibility 10.0 miles
Clouds Clear
Heat Index 83 °F
Dew Point 57 °F
Humidity 40%
Rainfall 0.00 in
Snow Depth Not available.
UV 0 out of 12
Pollen 7.00 out of 12
Air Quality Not available.
Flu Activity Not available.
METAR KNYL 281057Z AUTO 00000KT 10SM CLR 29/17 A2987 RMK AO2 SLP109 T02940172

More Conditions Fewer Conditions

Pressure 29.86 in
Visibility 10.0 miles
Clouds Clear
Heat Index 83 °F
Dew Point 57 °F
Humidity 40%
Rainfall 0.00 in
Snow Depth Not available.
UV 0 out of 12
Pollen 7.00 out of 12
Air Quality Not available.
Flu Activity Not available.
METAR KNYL 281057Z AUTO 00000KT 10SM CLR 29/17 A2987 RMK AO2 SLP109 T02940172

More Conditions Fewer Conditions

10-Day Weather Forecast

Almanac

Astronomy

Aug. 28, 2014 Rise Set
Actual Time 6:11 AM MST 7:08 PM MST
Civil Twilight 5:46 AM MST 7:33 PM MST
Nautical Twilight 5:16 AM MST 8:03 PM MST
Astronomical Twilight 4:45 AM MST 8:34 PM MST
Moon 8:55 AM MST 8:48 PM MST
Length of Visible Light 13h 47m
Length of Day
12h 56m
Tomorrow will be 1m 52s shorter.
Waxing Crescent, 8% of the Moon is Illuminated
Today
Waxing Crescent
Sep 2
First Quarter
Sep 8
Full
Sep 15
Last Quarter
Sep 24
New

Today's Extremes

State Highs State Lows

Community

WunderPhotos

Upload Photos

1,747,929 photos uploaded!

Nearby

Snow Depth

Station Depth Elevation
White Horse Lake 0 in 7180 ft
Workman Creek 1 in 6900 ft
Mormon Mountain 0 in 7500 ft
Promontory 0 in 7930 ft
Snowslide Canyon 0 in 9730 ft

Earthquake Activity

City Distance Mag. Time & Date
Progreso, Mexico 54 miles 2.6 10:55 PM MST
2014-08-25
Maneadero, Mexico 86 miles 2.8 1:03 PM MST
2014-08-25
Minimum magnitude displayed is 2.5.

Coastal Water Temperatures

Place Temperature
No Stations Reporting

Nearby Weather Stations